createdAt,value
2022-12-18T00:00:54.933Z,61.45
2022-12-18T00:03:22.012Z,59.37
2022-12-18T00:05:53.540Z,58.14
2022-12-18T00:08:21.184Z,56.29
2022-12-18T00:10:48.066Z,57.04
2022-12-18T00:13:14.872Z,56.73
2022-12-18T00:15:42.218Z,55.13
2022-12-18T00:18:09.294Z,56.37
2022-12-18T00:20:41.067Z,56.27
2022-12-18T00:23:11.438Z,55.30
2022-12-18T00:25:38.452Z,56.60
2022-12-18T00:28:06.190Z,57.00
2022-12-18T00:30:35.733Z,57.88
2022-12-18T00:33:03.493Z,58.42
2022-12-18T00:35:32.270Z,57.16
2022-12-18T00:38:07.315Z,56.68
2022-12-18T00:40:45.250Z,56.95
2022-12-18T00:43:16.723Z,57.73
2022-12-18T00:45:46.252Z,56.51
2022-12-18T00:48:27.055Z,57.14
2022-12-18T00:50:54.441Z,56.68
2022-12-18T00:53:22.445Z,58.13
2022-12-18T00:55:52.432Z,58.58
2022-12-18T00:58:19.921Z,58.64
2022-12-18T01:01:05.245Z,58.45
2022-12-18T01:03:35.405Z,59.79
2022-12-18T01:06:15.525Z,58.85
2022-12-18T01:08:43.414Z,57.45
2022-12-18T01:11:18.572Z,58.37
2022-12-18T01:13:49.920Z,58.74
2022-12-18T01:16:18.241Z,59.20
2022-12-18T01:18:45.263Z,59.81
2022-12-18T01:21:16.209Z,61.66
2022-12-18T01:23:46.599Z,64.02
2022-12-18T01:26:15.834Z,63.59
2022-12-18T01:28:44.803Z,62.67
2022-12-18T01:31:18.503Z,62.01
2022-12-18T01:33:50.709Z,62.98
2022-12-18T01:36:20.443Z,62.17
2022-12-18T01:38:47.918Z,64.87
2022-12-18T01:41:20.352Z,66.62
2022-12-18T01:43:54.089Z,66.03
2022-12-18T01:46:26.412Z,64.56
2022-12-18T01:49:03.435Z,65.88
2022-12-18T01:51:35.947Z,67.07
2022-12-18T01:54:12.926Z,64.13
2022-12-18T01:56:48.847Z,61.87
2022-12-18T01:59:16.571Z,61.20
2022-12-18T02:01:45.709Z,63.04
2022-12-18T02:04:29.435Z,62.98
2022-12-18T02:07:12.936Z,62.07
2022-12-18T02:09:51.696Z,60.84
2022-12-18T02:12:26.224Z,60.39
2022-12-18T02:15:31.210Z,59.72
2022-12-18T02:18:17.490Z,59.53
2022-12-18T02:21:08.385Z,61.37
2022-12-18T02:23:59.600Z,61.25
2022-12-18T02:26:55.058Z,61.23
2022-12-18T02:35:53.940Z,59.28
2022-12-18T02:38:48.649Z,58.84
2022-12-18T02:41:19.122Z,58.85
2022-12-18T02:43:58.339Z,59.90
2022-12-18T02:46:54.623Z,65.15
2022-12-18T02:50:08.308Z,68.40
2022-12-18T02:52:50.462Z,68.78
2022-12-18T02:55:33.344Z,70.34
2022-12-18T02:58:57.670Z,71.84
2022-12-18T03:01:59.992Z,70.82
2022-12-18T03:08:14.064Z,71.80
2022-12-18T03:10:55.842Z,70.88
2022-12-18T03:13:35.750Z,70.01
2022-12-18T03:16:09.713Z,67.41
2022-12-18T03:18:43.488Z,65.49
2022-12-18T03:21:15.870Z,63.84
2022-12-18T03:24:40.139Z,66.34
2022-12-18T03:30:44.856Z,65.78
2022-12-18T03:33:25.915Z,65.81
2022-12-18T03:36:00.832Z,65.24
2022-12-18T03:38:47.662Z,65.32
2022-12-18T03:41:51.347Z,63.76
2022-12-18T03:44:46.324Z,63.30
2022-12-18T03:47:50.390Z,63.24
2022-12-18T03:50:46.312Z,63.76
2022-12-18T03:53:46.192Z,64.42
2022-12-18T03:56:31.857Z,66.35
2022-12-18T03:59:06.803Z,66.47
2022-12-18T04:01:51.456Z,67.27
2022-12-18T04:04:24.929Z,67.91
2022-12-18T04:07:06.046Z,67.64
2022-12-18T04:09:37.451Z,67.49
2022-12-18T04:12:10.637Z,66.87
2022-12-18T04:15:14.469Z,68.29
2022-12-18T04:17:50.221Z,68.64
2022-12-18T04:20:47.792Z,66.49
2022-12-18T04:23:18.044Z,66.63
2022-12-18T04:25:49.320Z,65.91
2022-12-18T04:28:32.105Z,65.06
2022-12-18T04:31:17.425Z,66.85
2022-12-18T04:33:47.266Z,67.33
2022-12-18T04:36:16.230Z,67.59
2022-12-18T04:38:56.947Z,63.10
2022-12-18T04:41:27.700Z,61.31
2022-12-18T04:44:03.861Z,60.55
2022-12-18T04:46:30.763Z,61.01
2022-12-18T04:48:57.949Z,60.65
2022-12-18T04:51:32.426Z,60.94
2022-12-18T04:54:09.369Z,61.17
2022-12-18T04:56:45.745Z,61.37
2022-12-18T04:59:24.189Z,61.43
2022-12-18T05:01:58.894Z,61.54
2022-12-18T05:05:27.733Z,61.97
2022-12-18T05:08:06.226Z,62.21
2022-12-18T05:10:41.594Z,63.03
2022-12-18T05:13:20.640Z,63.70
2022-12-18T05:16:01.137Z,62.57
2022-12-18T05:18:31.804Z,63.78
2022-12-18T05:21:04.264Z,64.03
2022-12-18T05:23:44.438Z,62.70
2022-12-18T05:26:27.083Z,65.07
2022-12-18T05:29:04.284Z,64.32
2022-12-18T05:31:39.699Z,63.00
2022-12-18T05:34:08.006Z,62.92
2022-12-18T05:36:36.890Z,62.25
2022-12-18T05:39:09.890Z,61.83
2022-12-18T05:42:20.029Z,61.00
2022-12-18T05:44:48.176Z,63.50
2022-12-18T05:47:15.135Z,65.05
2022-12-18T05:50:01.031Z,66.09
2022-12-18T05:58:23.643Z,66.93
2022-12-18T06:00:50.863Z,67.41
2022-12-18T06:04:16.511Z,64.32
2022-12-18T06:10:07.708Z,64.84
2022-12-18T06:15:30.316Z,63.19
2022-12-18T06:18:50.276Z,63.18
2022-12-18T06:21:18.859Z,63.57
2022-12-18T06:23:50.921Z,63.04
2022-12-18T06:30:03.453Z,66.42
2022-12-18T06:36:11.872Z,66.54
2022-12-18T06:39:12.379Z,68.25
2022-12-18T06:44:31.593Z,64.24
2022-12-18T06:47:20.316Z,63.18
2022-12-18T06:54:12.703Z,63.11
2022-12-18T06:57:12.211Z,62.57
2022-12-18T07:50:44.016Z,61.92
2022-12-18T07:58:32.479Z,62.15
2022-12-18T08:11:34.068Z,63.36
2022-12-18T08:14:12.146Z,63.77
2022-12-18T08:27:30.088Z,62.64
2022-12-18T08:37:46.664Z,64.76
2022-12-18T08:46:11.149Z,64.02
2022-12-18T08:48:52.573Z,62.41
2022-12-18T09:04:34.109Z,60.68
2022-12-18T09:08:10.107Z,64.71
2022-12-18T09:21:19.577Z,63.43
2022-12-18T09:24:32.186Z,62.54
2022-12-18T09:27:19.362Z,60.38
2022-12-18T09:30:24.543Z,60.58
2022-12-18T09:33:50.388Z,60.24
2022-12-18T09:36:34.526Z,60.92
2022-12-18T09:39:07.814Z,61.63
2022-12-18T09:42:34.097Z,61.19
2022-12-18T09:46:14.175Z,59.86
2022-12-18T09:49:07.256Z,59.88
2022-12-18T10:11:19.079Z,57.54
2022-12-18T10:15:59.964Z,57.00
2022-12-18T10:22:12.934Z,57.72
2022-12-18T10:25:29.326Z,57.56
2022-12-18T10:28:03.340Z,56.78
2022-12-18T10:30:38.136Z,55.73
2022-12-18T10:33:37.613Z,55.95
2022-12-18T10:50:46.758Z,58.17
2022-12-18T10:52:27.521Z,57.20
2022-12-18T10:57:54.099Z,56.29
2022-12-18T11:00:41.990Z,55.89
2022-12-18T11:03:42.040Z,56.06
2022-12-18T11:10:25.523Z,56.87
2022-12-18T11:21:22.010Z,58.05
2022-12-18T11:28:44.003Z,57.27
2022-12-18T11:39:58.684Z,57.60
2022-12-18T11:43:24.724Z,57.69
2022-12-18T11:50:18.716Z,56.64
2022-12-18T11:53:20.613Z,56.78
2022-12-18T11:55:59.687Z,56.69
2022-12-18T11:59:39.879Z,58.62
2022-12-18T12:06:12.023Z,58.29
2022-12-18T12:09:45.896Z,57.91
2022-12-18T12:13:54.281Z,57.55
2022-12-18T12:25:10.293Z,58.82
2022-12-18T12:28:50.650Z,60.33
2022-12-18T12:31:41.688Z,58.88
2022-12-18T12:44:17.956Z,58.63
2022-12-18T13:05:29.984Z,64.98
2022-12-18T13:58:20.357Z,59.67
2022-12-18T14:22:26.259Z,60.84
2022-12-18T14:25:49.714Z,61.49
2022-12-18T14:32:11.927Z,61.70
2022-12-18T14:39:20.940Z,61.43
2022-12-18T14:41:50.126Z,61.66
2022-12-18T14:44:17.821Z,61.04
2022-12-18T14:46:47.187Z,60.85
2022-12-18T14:49:36.087Z,61.46
2022-12-18T14:52:27.307Z,60.51
2022-12-18T14:54:54.272Z,59.84
2022-12-18T14:57:32.785Z,61.06
2022-12-18T15:00:25.122Z,60.73
2022-12-18T15:02:55.885Z,61.21
2022-12-18T15:05:28.657Z,60.67
2022-12-18T15:07:58.885Z,61.15
2022-12-18T15:10:32.420Z,61.07
2022-12-18T15:13:03.907Z,61.29
2022-12-18T15:15:40.691Z,61.00
2022-12-18T15:18:11.477Z,61.12
2022-12-18T15:21:00.520Z,61.73
2022-12-18T15:23:33.186Z,60.32
2022-12-18T15:26:11.826Z,59.91
2022-12-18T15:28:50.996Z,59.88
2022-12-18T15:31:33.151Z,60.62
2022-12-18T15:34:13.343Z,62.10
2022-12-18T15:36:40.561Z,61.18
2022-12-18T15:39:07.315Z,59.56
2022-12-18T15:42:13.616Z,61.24
2022-12-18T15:48:34.793Z,60.57
2022-12-18T15:51:16.455Z,60.01
2022-12-18T15:53:55.509Z,59.11
2022-12-18T15:56:42.173Z,58.38
2022-12-18T16:03:46.030Z,57.60
2022-12-18T16:06:22.448Z,57.22
2022-12-18T16:08:50.491Z,57.11
2022-12-18T16:11:41.666Z,57.12
2022-12-18T16:14:29.860Z,56.43
2022-12-18T16:16:59.936Z,56.62
2022-12-18T16:19:28.012Z,56.78
2022-12-18T16:21:57.085Z,57.29
2022-12-18T16:24:30.588Z,56.81
2022-12-18T16:30:13.134Z,56.73
2022-12-18T16:32:40.149Z,56.44
2022-12-18T16:35:07.409Z,56.29
2022-12-18T16:37:34.464Z,56.87
2022-12-18T16:40:01.182Z,56.43
2022-12-18T16:42:28.987Z,56.05
2022-12-18T16:44:55.772Z,57.03
2022-12-18T16:47:22.456Z,56.46
2022-12-18T16:49:53.068Z,58.26
2022-12-18T16:52:21.961Z,57.62
2022-12-18T16:54:48.698Z,57.31
2022-12-18T16:57:20.479Z,56.29
2022-12-18T16:59:48.869Z,56.56
2022-12-18T17:02:23.894Z,56.69
2022-12-18T17:04:57.571Z,56.63
2022-12-18T17:07:25.133Z,57.11
2022-12-18T17:09:54.158Z,56.01
2022-12-18T17:12:21.785Z,56.64
2022-12-18T17:14:48.647Z,56.27
2022-12-18T17:17:24.023Z,55.91
2022-12-18T17:19:52.991Z,53.04
2022-12-18T17:22:21.474Z,55.82
2022-12-18T17:24:48.158Z,55.26
2022-12-18T17:27:20.603Z,56.12
2022-12-18T17:29:48.826Z,57.67
2022-12-18T17:32:27.444Z,56.95
2022-12-18T17:35:21.558Z,54.38
2022-12-18T17:37:56.938Z,55.46
2022-12-18T17:40:24.232Z,55.17
2022-12-18T17:42:54.648Z,55.41
2022-12-18T17:45:40.207Z,56.95
2022-12-18T17:48:25.285Z,56.02
2022-12-18T17:50:53.236Z,55.27
2022-12-18T17:53:19.996Z,57.12
2022-12-18T17:55:59.474Z,58.32
2022-12-18T17:58:26.436Z,59.63
2022-12-18T18:00:53.388Z,59.75
2022-12-18T18:03:20.340Z,58.54
2022-12-18T18:05:47.502Z,56.89
2022-12-18T18:08:25.350Z,54.36
2022-12-18T18:14:53.168Z,56.49
2022-12-18T18:17:19.955Z,56.62
2022-12-18T18:19:49.697Z,57.23
2022-12-18T18:22:27.124Z,56.96
2022-12-18T18:27:48.547Z,56.57
2022-12-18T18:30:15.595Z,55.87
2022-12-18T18:32:42.246Z,56.28
2022-12-18T18:35:37.569Z,56.40
2022-12-18T18:38:04.652Z,56.00
2022-12-18T18:40:31.376Z,55.88
2022-12-18T18:42:58.048Z,56.08
2022-12-18T18:45:26.186Z,56.04
2022-12-18T18:47:52.923Z,56.04
2022-12-18T18:50:22.622Z,56.63
2022-12-18T18:52:49.941Z,56.18
2022-12-18T18:55:24.139Z,56.42
2022-12-18T18:57:52.820Z,56.34
2022-12-18T19:00:19.761Z,55.73
2022-12-18T19:02:46.709Z,55.82
2022-12-18T19:05:22.227Z,55.27
2022-12-18T19:07:49.390Z,55.25
2022-12-18T19:10:16.321Z,55.58
2022-12-18T19:13:01.794Z,55.21
2022-12-18T19:15:33.428Z,55.68
2022-12-18T19:18:02.568Z,55.92
2022-12-18T19:20:31.958Z,56.04
2022-12-18T19:22:58.710Z,56.15
2022-12-18T19:25:40.393Z,56.12
2022-12-18T19:28:22.007Z,55.97
2022-12-18T19:30:59.086Z,55.88
2022-12-18T19:33:44.412Z,55.59
2022-12-18T19:36:21.547Z,55.16
2022-12-18T19:38:49.901Z,55.26
2022-12-18T19:41:18.925Z,55.34
2022-12-18T19:43:51.655Z,56.21
2022-12-18T19:46:21.931Z,56.08
2022-12-18T19:48:50.220Z,55.78
2022-12-18T19:51:27.866Z,56.43
2022-12-18T19:53:58.839Z,56.20
2022-12-18T19:56:29.365Z,55.90
2022-12-18T19:58:57.775Z,56.33
2022-12-18T20:01:27.208Z,56.06
2022-12-18T20:03:56.012Z,56.18
2022-12-18T20:10:32.316Z,56.22
2022-12-18T20:12:58.986Z,56.68
2022-12-18T20:15:45.291Z,56.20
2022-12-18T20:18:17.492Z,55.99
2022-12-18T20:21:13.597Z,55.71
2022-12-18T20:23:41.017Z,56.47
2022-12-18T20:26:08.594Z,55.76
2022-12-18T20:28:36.070Z,55.41
2022-12-18T20:31:46.835Z,55.08
2022-12-18T20:35:22.162Z,54.77
2022-12-18T20:37:50.877Z,54.71
2022-12-18T20:41:47.830Z,55.38
2022-12-18T20:44:37.171Z,57.98
2022-12-18T20:47:07.711Z,60.98
2022-12-18T20:49:39.584Z,61.98
2022-12-18T20:52:11.103Z,61.60
2022-12-18T20:55:08.349Z,59.02
2022-12-18T20:58:28.801Z,58.11
2022-12-18T21:01:19.133Z,57.28
2022-12-18T21:03:52.681Z,56.34
2022-12-18T21:06:25.948Z,55.87
2022-12-18T21:08:56.064Z,57.47
2022-12-18T21:11:50.246Z,57.88
2022-12-18T21:14:28.259Z,58.17
2022-12-18T21:16:59.161Z,58.00
2022-12-18T21:19:31.695Z,57.76
2022-12-18T21:21:59.005Z,57.35
2022-12-18T21:24:26.468Z,57.07
2022-12-18T21:26:56.225Z,57.92
2022-12-18T21:29:25.466Z,59.10
2022-12-18T21:31:56.137Z,59.56
2022-12-18T21:34:29.400Z,59.75
2022-12-18T21:36:58.230Z,60.47
2022-12-18T21:39:26.339Z,60.48
2022-12-18T21:42:19.206Z,60.14
2022-12-18T21:44:49.057Z,59.75
2022-12-18T21:47:22.668Z,59.98
2022-12-18T21:49:53.679Z,59.85
2022-12-18T21:52:25.689Z,59.75
2022-12-18T21:55:09.570Z,58.69
2022-12-18T21:57:41.817Z,57.82
2022-12-18T22:00:20.982Z,58.08
2022-12-18T22:03:13.347Z,57.86
2022-12-18T22:05:35.569Z,57.60
2022-12-18T22:08:08.857Z,57.22
2022-12-18T22:10:39.968Z,57.55
2022-12-18T22:13:07.620Z,57.54
2022-12-18T22:15:34.680Z,56.97
2022-12-18T22:18:04.827Z,57.01
2022-12-18T22:20:31.721Z,57.75
2022-12-18T22:23:02.604Z,57.80
2022-12-18T22:25:35.234Z,56.84
2022-12-18T22:28:24.521Z,57.83
2022-12-18T22:30:52.696Z,58.86
2022-12-18T22:33:26.815Z,59.23
2022-12-18T22:35:53.637Z,59.63
2022-12-18T22:38:20.386Z,59.50
2022-12-18T22:40:47.179Z,59.48
2022-12-18T22:43:16.670Z,58.32
2022-12-18T22:45:47.377Z,59.28
2022-12-18T22:48:15.279Z,59.47
2022-12-18T22:50:53.451Z,58.71
2022-12-18T22:53:26.151Z,58.61
2022-12-18T22:56:00.628Z,58.24
2022-12-18T22:58:27.544Z,58.14
2022-12-18T23:00:54.604Z,58.45
2022-12-18T23:03:21.380Z,58.18
2022-12-18T23:05:48.204Z,58.73
2022-12-18T23:08:26.851Z,58.45
2022-12-18T23:10:55.989Z,57.79
2022-12-18T23:13:23.364Z,58.54
2022-12-18T23:15:50.228Z,58.13
2022-12-18T23:18:25.939Z,58.54
2022-12-18T23:20:52.919Z,58.37
2022-12-18T23:23:19.959Z,58.45
2022-12-18T23:25:46.670Z,57.86
2022-12-18T23:28:13.844Z,58.64
2022-12-18T23:30:40.864Z,58.24
2022-12-18T23:33:08.075Z,58.89
2022-12-18T23:35:38.894Z,59.37
2022-12-18T23:38:06.441Z,59.59
2022-12-18T23:40:33.392Z,59.30
2022-12-18T23:43:00.533Z,59.31
2022-12-18T23:45:27.606Z,59.15
2022-12-18T23:47:54.402Z,59.80
2022-12-18T23:50:23.789Z,59.45
2022-12-18T23:52:57.280Z,59.29
2022-12-18T23:55:30.705Z,58.83
2022-12-18T23:57:57.516Z,58.67
